Hlavní strana
METAR-TAF:

METAR-TAF

Letiště :

Hassi R'Mel, Alžírsko

zeměpisná šířka: 32-55-48N, zeměpisná délka: 003-18-44E, výška: 774 m

Aktuální stav počasí

Zpráva byla vytvořena před 11 hodinami a 47 minutami, v 18:00 UTC
Západojihozápadní vítr 6 kt
Teplota 12°C
Vlhkost vzduchu 44%
Tlak 1023 hPa
Viditelnost 10 km a více
Žádná oblačnost pod 1500 m, nevyskytují se cumulonimby.

METAR: DAFH 241800Z 24006KT CAVOK 12/00 Q1023

Čas: 06:47 (05:47 UTC)

Předpověď počasí

Zpráva byla vytvořena před 12 hodinami a 47 minutami, v 17:00 UTC
Předpověď platná od 24 v 18 UTC do 25 v 03 UTC
Jihojihozápadní vítr 8 kt
Viditelnost 10 km a více
Žádná oblačnost pod 1500 m, nevyskytují se cumulonimby.

TAF: DAFH 241700Z 2418/2503 20008KT CAVOK

Stav a předpovědi počasí z více než 4 000 letišť (zprávy METAR a TAF).

Červené a žluté tečky na mapě představují dostupné meteorologické stanice.

Když kurzor umístíte na tečku, zobrazí se název stanice.

Pak kliknutím zobrazíte stav a předpověď počasí.

Chcete-li změnit mapu, kliknutím na zelené tlačítko se znaménkem +mapu přiblížíte, kliknutím na zelené tlačítko se znaménkem – mapu oddálíte a kliknutím na zelené šipky přejdete na sousední mapy.


METAR-TAF: